This is the latest recevied weather packets stored in our database for station/object SV9TNF-51. If no packets are shown the sender has not sent any weather packets the latest 10 day(s).
| Time | Temp. | Humidity | Pressure | Rain* | Wind** | Luminosity | Snow |
|---|---|---|---|---|---|---|---|
| 1788351825 | 35.56° C | 39% | 1011.5 hPa | 0 mm | 3.13 m/s, 106° | - | - |
| 1788351525 | 36.11° C | 37% | 1011.5 hPa | 0 mm | 1.79 m/s, 146° | - | - |
| 1788351225 | 36.67° C | 37% | 1011.5 hPa | 0 mm | 0.89 m/s, 135° | - | - |
| 1788350925 | 37.22° C | 36% | 1011.5 hPa | 0 mm | 0 m/s | - | - |
| 1788350624 | 36.67° C | 36% | 1011.5 hPa | 0 mm | 3.13 m/s, 158° | - | - |
| 1788350325 | 36.67° C | 36% | 1011.5 hPa | 0 mm | 0.89 m/s, 138° | - | - |
| 1788350024 | 36.67° C | 38% | 1011.5 hPa | 0 mm | 1.34 m/s, 127° | - | - |
| 1788349724 | 37.22° C | 36% | 1011.5 hPa | 0 mm | 1.34 m/s, 132° | - | - |
| 1788349424 | 36.11° C | 37% | 1011.5 hPa | 0 mm | 2.68 m/s, 126° | - | - |
| 1788349124 | 36.67° C | 38% | 1011.5 hPa | 0 mm | 4.02 m/s, 150° | - | - |
| 1788348824 | 36.11° C | 38% | 1011.5 hPa | 0 mm | 3.13 m/s, 49° | - | - |
| 1788348524 | 36.67° C | 33% | 1011.5 hPa | 0 mm | 1.79 m/s, 118° | - | - |
| 1788348223 | 36.67° C | 31% | 1011.5 hPa | 0 mm | 2.24 m/s, 113° | - | - |
| 1788347923 | 36.67° C | 34% | 1011.5 hPa | 0 mm | 1.34 m/s, 132° | - | - |
| 1788347623 | 36.67° C | 34% | 1011.5 hPa | 0 mm | 2.68 m/s, 128° | - | - |
| 1788347323 | 38.33° C | 31% | 1011.9 hPa | 0 mm | 0.89 m/s, 135° | - | - |
| 1788347023 | 38.33° C | 29% | 1011.9 hPa | 0 mm | 0.45 m/s, 134° | - | - |
| 1788346723 | 36.67° C | 32% | 1011.9 hPa | 0 mm | 1.79 m/s, 130° | - | - |
| 1788346423 | 37.22° C | 32% | 1011.9 hPa | 0 mm | 0.45 m/s, 128° | - | - |
| 1788346123 | 35.56° C | 34% | 1011.9 hPa | 0 mm | 1.79 m/s, 125° | - | - |
| 1788345823 | 34.44° C | 35% | 1011.9 hPa | 0 mm | 2.68 m/s, 94° | - | - |
| 1788345523 | 34.44° C | 37% | 1011.9 hPa | 0 mm | 3.58 m/s, 141° | - | - |
| 1788345223 | 34.44° C | 37% | 1011.9 hPa | 0 mm | 4.92 m/s, 113° | - | - |
| 1788344922 | 33.89° C | 38% | 1011.9 hPa | 0 mm | 4.92 m/s, 119° | - | - |
| 1788344623 | 33.89° C | 39% | 1011.9 hPa | 0 mm | 4.02 m/s, 113° | - | - |
* Rain latest hour (hover to see other rain measurements)
** Current wind speed in m/s (hover to see current wind gust speed)